sensor_id;sensor_type;location;lat;lon;timestamp;pressure;altitude;pressure_sealevel;temperature
22269;BMP280;11303;50.772;19.670;2022-12-07T00:01:20;98485.59;;;1.36
22269;BMP280;11303;50.772;19.670;2022-12-07T00:03:22;98476.25;;;1.35
22269;BMP280;11303;50.772;19.670;2022-12-07T00:05:24;98487.78;;;1.34
22269;BMP280;11303;50.772;19.670;2022-12-07T00:07:25;98480.28;;;1.32
22269;BMP280;11303;50.772;19.670;2022-12-07T00:09:28;98473.56;;;1.31
22269;BMP280;11303;50.772;19.670;2022-12-07T00:11:29;98482.50;;;1.30
22269;BMP280;11303;50.772;19.670;2022-12-07T00:13:32;98475.00;;;1.29
22269;BMP280;11303;50.772;19.670;2022-12-07T00:15:34;98475.00;;;1.29
22269;BMP280;11303;50.772;19.670;2022-12-07T00:17:36;98467.16;;;1.29
22269;BMP280;11303;50.772;19.670;2022-12-07T00:19:37;98474.25;;;1.28
22269;BMP280;11303;50.772;19.670;2022-12-07T00:21:39;98474.25;;;1.28
22269;BMP280;11303;50.772;19.670;2022-12-07T00:23:42;98460.44;;;1.28
22269;BMP280;11303;50.772;19.670;2022-12-07T00:25:44;98466.41;;;1.28
22269;BMP280;11303;50.772;19.670;2022-12-07T00:27:45;98469.03;;;1.28
22269;BMP280;11303;50.772;19.670;2022-12-07T00:29:47;98467.50;;;1.27
22269;BMP280;11303;50.772;19.670;2022-12-07T00:31:48;98473.81;;;1.26
22269;BMP280;11303;50.772;19.670;2022-12-07T00:33:50;98472.72;;;1.27
22269;BMP280;11303;50.772;19.670;2022-12-07T00:35:56;98463.38;;;1.26
22269;BMP280;11303;50.772;19.670;2022-12-07T00:37:58;98461.88;;;1.25
22269;BMP280;11303;50.772;19.670;2022-12-07T00:39:59;98465.97;;;1.26
22269;BMP280;11303;50.772;19.670;2022-12-07T00:42:01;98456.63;;;1.25
22269;BMP280;11303;50.772;19.670;2022-12-07T00:44:03;98457.81;;;1.28
22269;BMP280;11303;50.772;19.670;2022-12-07T00:46:05;98460.44;;;1.28
22269;BMP280;11303;50.772;19.670;2022-12-07T00:48:06;98465.97;;;1.26
22269;BMP280;11303;50.772;19.670;2022-12-07T00:50:08;98452.50;;;1.24
22269;BMP280;11303;50.772;19.670;2022-12-07T00:52:10;98453.59;;;1.23
22269;BMP280;11303;50.772;19.670;2022-12-07T00:54:11;98461.75;;;1.22
22269;BMP280;11303;50.772;19.670;2022-12-07T00:56:16;98460.91;;;1.18
22269;BMP280;11303;50.772;19.670;2022-12-07T00:58:18;98452.66;;;1.16
22269;BMP280;11303;50.772;19.670;2022-12-07T01:00:20;98457.44;;;1.14
22269;BMP280;11303;50.772;19.670;2022-12-07T01:02:21;98453.66;;;1.11
22269;BMP280;11303;50.772;19.670;2022-12-07T01:04:23;98463.66;;;1.09
22269;BMP280;11303;50.772;19.670;2022-12-07T01:06:25;98468.13;;;1.09
22269;BMP280;11303;50.772;19.670;2022-12-07T01:08:27;98464.75;;;1.08
22269;BMP280;11303;50.772;19.670;2022-12-07T01:10:29;98457.69;;;1.09
22269;BMP280;11303;50.772;19.670;2022-12-07T01:12:31;98454.31;;;1.08
22269;BMP280;11303;50.772;19.670;2022-12-07T01:14:33;98462.59;;;1.10
22269;BMP280;11303;50.772;19.670;2022-12-07T01:16:34;98452.13;;;1.10
22269;BMP280;11303;50.772;19.670;2022-12-07T01:18:37;98450.69;;;1.13
22269;BMP280;11303;50.772;19.670;2022-12-07T01:20:39;98449.25;;;1.15
22269;BMP280;11303;50.772;19.670;2022-12-07T01:22:41;98451.53;;;1.17
22269;BMP280;11303;50.772;19.670;2022-12-07T01:24:43;98448.94;;;1.17
22269;BMP280;11303;50.772;19.670;2022-12-07T01:26:44;98447.53;;;1.19
22269;BMP280;11303;50.772;19.670;2022-12-07T01:28:46;98448.69;;;1.22
22269;BMP280;11303;50.772;19.670;2022-12-07T01:30:57;98447.59;;;1.23
22269;BMP280;11303;50.772;19.670;2022-12-07T01:32:59;98443.25;;;1.27
22269;BMP280;11303;50.772;19.670;2022-12-07T01:35:01;98442.56;;;1.30
22269;BMP280;11303;50.772;19.670;2022-12-07T01:37:02;98437.00;;;1.31
22269;BMP280;11303;50.772;19.670;2022-12-07T01:39:06;98435.56;;;1.34
22269;BMP280;11303;50.772;19.670;2022-12-07T01:41:08;98446.75;;;1.34
22269;BMP280;11303;50.772;19.670;2022-12-07T01:43:19;98440.44;;;1.35
22269;BMP280;11303;50.772;19.670;2022-12-07T01:45:40;98438.16;;;1.34
22269;BMP280;11303;50.772;19.670;2022-12-07T01:47:55;98447.50;;;1.35
22269;BMP280;11303;50.772;19.670;2022-12-07T01:49:57;98437.81;;;1.35
22269;BMP280;11303;50.772;19.670;2022-12-07T01:52:14;98442.28;;;1.35
22269;BMP280;11303;50.772;19.670;2022-12-07T01:54:17;98437.50;;;1.37
22269;BMP280;11303;50.772;19.670;2022-12-07T01:56:22;98440.84;;;1.37
22269;BMP280;11303;50.772;19.670;2022-12-07T01:58:26;98434.53;;;1.38
22269;BMP280;11303;50.772;19.670;2022-12-07T02:00:27;98439.44;;;1.40
22269;BMP280;11303;50.772;19.670;2022-12-07T02:02:38;98436.50;;;1.41
22269;BMP280;11303;50.772;19.670;2022-12-07T02:04:40;98431.25;;;1.41
22269;BMP280;11303;50.772;19.670;2022-12-07T02:06:42;98426.03;;;1.41
22269;BMP280;11303;50.772;19.670;2022-12-07T02:08:45;98431.25;;;1.41
22269;BMP280;11303;50.772;19.670;2022-12-07T02:10:47;98428.66;;;1.41
22269;BMP280;11303;50.772;19.670;2022-12-07T02:12:53;98419.28;;;1.40
22269;BMP280;11303;50.772;19.670;2022-12-07T02:14:55;98427.53;;;1.42
22269;BMP280;11303;50.772;19.670;2022-12-07T02:17:06;98426.78;;;1.42
22269;BMP280;11303;50.772;19.670;2022-12-07T02:19:22;98425.28;;;1.41
22269;BMP280;11303;50.772;19.670;2022-12-07T02:23:56;98416.00;;;1.43
22269;BMP280;11303;50.772;19.670;2022-12-07T02:28:37;98420.16;;;1.44
22269;BMP280;11303;50.772;19.670;2022-12-07T02:30:45;98426.09;;;1.45
22269;BMP280;11303;50.772;19.670;2022-12-07T02:33:02;98405.22;;;1.45
22269;BMP280;11303;50.772;19.670;2022-12-07T02:35:10;98412.72;;;1.46
22269;BMP280;11303;50.772;19.670;2022-12-07T02:37:34;98409.69;;;1.44
22269;BMP280;11303;50.772;19.670;2022-12-07T02:39:48;98405.88;;;1.42
22269;BMP280;11303;50.772;19.670;2022-12-07T02:41:53;98405.13;;;1.41
22269;BMP280;11303;50.772;19.670;2022-12-07T02:44:18;98408.81;;;1.40
22269;BMP280;11303;50.772;19.670;2022-12-07T02:46:23;98409.59;;;1.41
22269;BMP280;11303;50.772;19.670;2022-12-07T02:48:27;98403.59;;;1.40
22269;BMP280;11303;50.772;19.670;2022-12-07T02:50:29;98404.72;;;1.39
22269;BMP280;11303;50.772;19.670;2022-12-07T02:52:31;98398.38;;;1.40
22269;BMP280;11303;50.772;19.670;2022-12-07T02:54:32;98404.38;;;1.41
22269;BMP280;11303;50.772;19.670;2022-12-07T03:00:58;98400.25;;;1.40
22269;BMP280;11303;50.772;19.670;2022-12-07T03:03:09;98390.13;;;1.38
22269;BMP280;11303;50.772;19.670;2022-12-07T03:08:05;98385.59;;;1.35
22269;BMP280;11303;50.772;19.670;2022-12-07T03:10:41;98384.06;;;1.34
22269;BMP280;11303;50.772;19.670;2022-12-07T03:15:10;98392.59;;;1.31
22269;BMP280;11303;50.772;19.670;2022-12-07T03:17:17;98384.75;;;1.31
22269;BMP280;11303;50.772;19.670;2022-12-07T03:19:22;98387.34;;;1.31
22269;BMP280;11303;50.772;19.670;2022-12-07T03:21:47;98388.53;;;1.34
22269;BMP280;11303;50.772;19.670;2022-12-07T03:23:54;98382.97;;;1.35
22269;BMP280;11303;50.772;19.670;2022-12-07T03:25:58;98379.25;;;1.36
22269;BMP280;11303;50.772;19.670;2022-12-07T03:28:05;98381.88;;;1.36
22269;BMP280;11303;50.772;19.670;2022-12-07T03:30:15;98377.81;;;1.39
22269;BMP280;11303;50.772;19.670;2022-12-07T03:32:26;98387.53;;;1.38
22269;BMP280;11303;50.772;19.670;2022-12-07T03:34:32;98380.09;;;1.40
22269;BMP280;11303;50.772;19.670;2022-12-07T03:36:40;98372.25;;;1.40
22269;BMP280;11303;50.772;19.670;2022-12-07T03:38:50;98373.78;;;1.41
22269;BMP280;11303;50.772;19.670;2022-12-07T03:41:01;98364.84;;;1.42
22269;BMP280;11303;50.772;19.670;2022-12-07T03:43:06;98366.69;;;1.42
22269;BMP280;11303;50.772;19.670;2022-12-07T03:45:08;98370.84;;;1.43
22269;BMP280;11303;50.772;19.670;2022-12-07T03:49:47;98351.78;;;1.42
22269;BMP280;11303;50.772;19.670;2022-12-07T03:52:10;98361.47;;;1.42
22269;BMP280;11303;50.772;19.670;2022-12-07T03:54:18;98356.25;;;1.42
22269;BMP280;11303;50.772;19.670;2022-12-07T03:56:22;98357.69;;;1.39
22269;BMP280;11303;50.772;19.670;2022-12-07T03:58:24;98358.78;;;1.38
22269;BMP280;11303;50.772;19.670;2022-12-07T04:00:26;98358.78;;;1.38
22269;BMP280;11303;50.772;19.670;2022-12-07T04:02:28;98360.97;;;1.36
22269;BMP280;11303;50.772;19.670;2022-12-07T04:04:30;98355.75;;;1.36
22269;BMP280;11303;50.772;19.670;2022-12-07T04:06:31;98352.69;;;1.34
22269;BMP280;11303;50.772;19.670;2022-12-07T04:08:33;98363.16;;;1.34
22269;BMP280;11303;50.772;19.670;2022-12-07T04:10:35;98357.19;;;1.34
22269;BMP280;11303;50.772;19.670;2022-12-07T04:12:36;98359.81;;;1.34
22269;BMP280;11303;50.772;19.670;2022-12-07T04:14:38;98357.19;;;1.34
22269;BMP280;11303;50.772;19.670;2022-12-07T04:16:39;98356.41;;;1.33
22269;BMP280;11303;50.772;19.670;2022-12-07T04:18:45;98360.53;;;1.34
22269;BMP280;11303;50.772;19.670;2022-12-07T04:20:46;98371.00;;;1.34
22269;BMP280;11303;50.772;19.670;2022-12-07T04:22:48;98364.25;;;1.33
22269;BMP280;11303;50.772;19.670;2022-12-07T04:24:49;98370.25;;;1.34
22269;BMP280;11303;50.772;19.670;2022-12-07T04:26:51;98360.13;;;1.32
22269;BMP280;11303;50.772;19.670;2022-12-07T04:28:52;98363.91;;;1.35
22269;BMP280;11303;50.772;19.670;2022-12-07T04:30:54;98357.94;;;1.34
22269;BMP280;11303;50.772;19.670;2022-12-07T04:32:56;98349.00;;;1.35
22269;BMP280;11303;50.772;19.670;2022-12-07T04:34:57;98356.09;;;1.35
22269;BMP280;11303;50.772;19.670;2022-12-07T04:36:59;98357.94;;;1.34
22269;BMP280;11303;50.772;19.670;2022-12-07T04:39:01;98358.69;;;1.35
22269;BMP280;11303;50.772;19.670;2022-12-07T04:41:07;98353.81;;;1.33
22269;BMP280;11303;50.772;19.670;2022-12-07T04:43:08;98354.91;;;1.32
22269;BMP280;11303;50.772;19.670;2022-12-07T04:45:10;98342.97;;;1.31
22269;BMP280;11303;50.772;19.670;2022-12-07T04:47:12;98349.28;;;1.30
22269;BMP280;11303;50.772;19.670;2022-12-07T04:49:14;98349.28;;;1.30
22269;BMP280;11303;50.772;19.670;2022-12-07T04:51:23;98348.50;;;1.30
22269;BMP280;11303;50.772;19.670;2022-12-07T04:53:24;98345.91;;;1.30
22269;BMP280;11303;50.772;19.670;2022-12-07T04:55:26;98344.84;;;1.31
22269;BMP280;11303;50.772;19.670;2022-12-07T04:57:27;98342.97;;;1.31
22269;BMP280;11303;50.772;19.670;2022-12-07T04:59:29;98351.19;;;1.33
22269;BMP280;11303;50.772;19.670;2022-12-07T05:01:31;98345.56;;;1.31
22269;BMP280;11303;50.772;19.670;2022-12-07T05:03:33;98339.25;;;1.32
22269;BMP280;11303;50.772;19.670;2022-12-07T05:05:34;98345.97;;;1.33
22269;BMP280;11303;50.772;19.670;2022-12-07T05:07:36;98343.78;;;1.35
22269;BMP280;11303;50.772;19.670;2022-12-07T05:09:37;98346.41;;;1.35
22269;BMP280;11303;50.772;19.670;2022-12-07T05:11:39;98345.28;;;1.36
22269;BMP280;11303;50.772;19.670;2022-12-07T05:13:41;98347.56;;;1.38
22269;BMP280;11303;50.772;19.670;2022-12-07T05:15:42;98346.81;;;1.37
22269;BMP280;11303;50.772;19.670;2022-12-07T05:17:45;98344.97;;;1.38
22269;BMP280;11303;50.772;19.670;2022-12-07T05:19:47;98345.38;;;1.40
22269;BMP280;11303;50.772;19.670;2022-12-07T05:21:48;98351.34;;;1.40
22269;BMP280;11303;50.772;19.670;2022-12-07T05:23:50;98342.78;;;1.40
22269;BMP280;11303;50.772;19.670;2022-12-07T05:25:52;98349.50;;;1.41
22269;BMP280;11303;50.772;19.670;2022-12-07T05:27:54;98354.41;;;1.42
22269;BMP280;11303;50.772;19.670;2022-12-07T05:29:56;98351.78;;;1.42
22269;BMP280;11303;50.772;19.670;2022-12-07T05:31:58;98357.78;;;1.43
22269;BMP280;11303;50.772;19.670;2022-12-07T05:33:59;98358.84;;;1.42
22269;BMP280;11303;50.772;19.670;2022-12-07T05:36:01;98350.28;;;1.41
22269;BMP280;11303;50.772;19.670;2022-12-07T05:38:08;98357.78;;;1.43
22269;BMP280;11303;50.772;19.670;2022-12-07T05:40:10;98355.50;;;1.41
22269;BMP280;11303;50.772;19.670;2022-12-07T05:42:12;98352.88;;;1.41
22269;BMP280;11303;50.772;19.670;2022-12-07T05:44:14;98353.56;;;1.38
22269;BMP280;11303;50.772;19.670;2022-12-07T05:46:16;98358.34;;;1.36
22269;BMP280;11303;50.772;19.670;2022-12-07T05:48:18;98360.97;;;1.36
22269;BMP280;11303;50.772;19.670;2022-12-07T05:50:19;98359.47;;;1.35
22269;BMP280;11303;50.772;19.670;2022-12-07T05:52:21;98354.97;;;1.36
22269;BMP280;11303;50.772;19.670;2022-12-07T05:54:23;98364.69;;;1.35
22269;BMP280;11303;50.772;19.670;2022-12-07T05:56:25;98366.97;;;1.37
22269;BMP280;11303;50.772;19.670;2022-12-07T05:58:27;98366.19;;;1.36
22269;BMP280;11303;50.772;19.670;2022-12-07T06:00:47;98362.06;;;1.35
22269;BMP280;11303;50.772;19.670;2022-12-07T06:02:51;98356.84;;;1.35
22269;BMP280;11303;50.772;19.670;2022-12-07T06:04:53;98363.91;;;1.35
22269;BMP280;11303;50.772;19.670;2022-12-07T06:06:55;98364.25;;;1.33
22269;BMP280;11303;50.772;19.670;2022-12-07T06:08:56;98363.84;;;1.31
22269;BMP280;11303;50.772;19.670;2022-12-07T06:10:58;98367.22;;;1.32
22269;BMP280;11303;50.772;19.670;2022-12-07T06:13:18;98372.78;;;1.30
22269;BMP280;11303;50.772;19.670;2022-12-07T06:15:20;98361.94;;;1.28
22269;BMP280;11303;50.772;19.670;2022-12-07T06:17:24;98372.38;;;1.28
22269;BMP280;11303;50.772;19.670;2022-12-07T06:19:26;98371.97;;;1.26
22269;BMP280;11303;50.772;19.670;2022-12-07T06:21:28;98378.28;;;1.25
22269;BMP280;11303;50.772;19.670;2022-12-07T06:23:29;98368.50;;;1.22
22269;BMP280;11303;50.772;19.670;2022-12-07T06:25:31;98375.56;;;1.22
22269;BMP280;11303;50.772;19.670;2022-12-07T06:27:32;98377.00;;;1.19
22269;BMP280;11303;50.772;19.670;2022-12-07T06:29:34;98371.34;;;1.17
22269;BMP280;11303;50.772;19.670;2022-12-07T06:31:36;98367.56;;;1.15
22269;BMP280;11303;50.772;19.670;2022-12-07T06:33:38;98374.22;;;1.12
22269;BMP280;11303;50.772;19.670;2022-12-07T06:35:39;98379.34;;;1.09
22269;BMP280;11303;50.772;19.670;2022-12-07T06:37:41;98370.00;;;1.08
22269;BMP280;11303;50.772;19.670;2022-12-07T06:39:42;98369.25;;;1.07
22269;BMP280;11303;50.772;19.670;2022-12-07T06:41:44;98371.88;;;1.07
22269;BMP280;11303;50.772;19.670;2022-12-07T06:43:46;98360.97;;;1.05
22269;BMP280;11303;50.772;19.670;2022-12-07T06:45:55;98377.41;;;1.06
22269;BMP280;11303;50.772;19.670;2022-12-07T06:47:57;98370.31;;;1.06
22269;BMP280;11303;50.772;19.670;2022-12-07T06:49:59;98377.41;;;1.06
22269;BMP280;11303;50.772;19.670;2022-12-07T06:52:01;98373.59;;;1.03
22269;BMP280;11303;50.772;19.670;2022-12-07T06:54:03;98373.59;;;1.03
22269;BMP280;11303;50.772;19.670;2022-12-07T06:56:05;98376.22;;;1.03
22269;BMP280;11303;50.772;19.670;2022-12-07T06:58:07;98368.38;;;1.03
22269;BMP280;11303;50.772;19.670;2022-12-07T07:00:09;98369.47;;;1.02
22269;BMP280;11303;50.772;19.670;2022-12-07T07:02:11;98372.88;;;1.03
22269;BMP280;11303;50.772;19.670;2022-12-07T07:04:12;98371.00;;;1.03
22269;BMP280;11303;50.772;19.670;2022-12-07T07:06:14;98376.66;;;1.05
22269;BMP280;11303;50.772;19.670;2022-12-07T07:08:16;98382.97;;;1.04
22269;BMP280;11303;50.772;19.670;2022-12-07T07:10:23;98381.88;;;1.05
22269;BMP280;11303;50.772;19.670;2022-12-07T07:12:24;98378.16;;;1.06
22269;BMP280;11303;50.772;19.670;2022-12-07T07:14:26;98393.81;;;1.06
22269;BMP280;11303;50.772;19.670;2022-12-07T07:16:30;98388.19;;;1.04
22269;BMP280;11303;50.772;19.670;2022-12-07T07:18:32;98372.09;;;1.02
22269;BMP280;11303;50.772;19.670;2022-12-07T07:20:34;98382.53;;;1.02
22269;BMP280;11303;50.772;19.670;2022-12-07T07:22:36;98394.50;;;1.03
22269;BMP280;11303;50.772;19.670;2022-12-07T07:24:37;98391.53;;;1.05
22269;BMP280;11303;50.772;19.670;2022-12-07T07:26:38;98391.22;;;1.06
22269;BMP280;11303;50.772;19.670;2022-12-07T07:28:40;98394.59;;;1.07
22269;BMP280;11303;50.772;19.670;2022-12-07T07:30:42;98390.88;;;1.08
22269;BMP280;11303;50.772;19.670;2022-12-07T07:32:43;98396.09;;;1.08
22269;BMP280;11303;50.772;19.670;2022-12-07T07:34:45;98392.75;;;1.07
22269;BMP280;11303;50.772;19.670;2022-12-07T07:36:46;98399.47;;;1.08
22269;BMP280;11303;50.772;19.670;2022-12-07T07:38:47;98393.50;;;1.08
22269;BMP280;11303;50.772;19.670;2022-12-07T07:40:49;98398.38;;;1.09
22269;BMP280;11303;50.772;19.670;2022-12-07T07:42:52;98393.16;;;1.09
22269;BMP280;11303;50.772;19.670;2022-12-07T07:44:54;98400.66;;;1.11
22269;BMP280;11303;50.772;19.670;2022-12-07T07:46:55;98388.59;;;1.06
22269;BMP280;11303;50.772;19.670;2022-12-07T07:48:57;98399.81;;;1.07
22269;BMP280;11303;50.772;19.670;2022-12-07T07:50:58;98389.47;;;1.10
22269;BMP280;11303;50.772;19.670;2022-12-07T07:53:00;98392.50;;;1.12
22269;BMP280;11303;50.772;19.670;2022-12-07T07:55:02;98399.66;;;1.15
22269;BMP280;11303;50.772;19.670;2022-12-07T07:57:03;98400.41;;;1.16
22269;BMP280;11303;50.772;19.670;2022-12-07T07:59:05;98399.41;;;1.20
22269;BMP280;11303;50.772;19.670;2022-12-07T08:01:07;98402.88;;;1.24
22269;BMP280;11303;50.772;19.670;2022-12-07T08:03:08;98400.03;;;1.29
22269;BMP280;11303;50.772;19.670;2022-12-07T08:05:11;98400.81;;;1.33
22269;BMP280;11303;50.772;19.670;2022-12-07T08:07:14;98408.16;;;1.43
22269;BMP280;11303;50.772;19.670;2022-12-07T08:09:15;98407.09;;;1.44
22269;BMP280;11303;50.772;19.670;2022-12-07T08:11:17;98417.19;;;1.46
22269;BMP280;11303;50.772;19.670;2022-12-07T08:13:18;98410.53;;;1.48
22269;BMP280;11303;50.772;19.670;2022-12-07T08:15:20;98417.25;;;1.49
22269;BMP280;11303;50.772;19.670;2022-12-07T08:17:21;98408.00;;;1.52
22269;BMP280;11303;50.772;19.670;2022-12-07T08:19:23;98409.53;;;1.53
22269;BMP280;11303;50.772;19.670;2022-12-07T08:21:25;98413.63;;;1.54
22269;BMP280;11303;50.772;19.670;2022-12-07T08:23:26;98413.72;;;1.57
22269;BMP280;11303;50.772;19.670;2022-12-07T08:25:39;98421.00;;;1.64
22269;BMP280;11303;50.772;19.670;2022-12-07T08:27:41;98424.34;;;1.64
22269;BMP280;11303;50.772;19.670;2022-12-07T08:29:42;98426.63;;;1.66
22269;BMP280;11303;50.772;19.670;2022-12-07T08:31:44;98424.09;;;1.69
22269;BMP280;11303;50.772;19.670;2022-12-07T08:33:47;98418.28;;;1.76
22269;BMP280;11303;50.772;19.670;2022-12-07T08:35:48;98426.19;;;1.79
22269;BMP280;11303;50.772;19.670;2022-12-07T08:37:50;98429.25;;;1.81
22269;BMP280;11303;50.772;19.670;2022-12-07T08:39:51;98431.25;;;1.88
22269;BMP280;11303;50.772;19.670;2022-12-07T08:41:53;98426.41;;;1.90
22269;BMP280;11303;50.772;19.670;2022-12-07T08:43:54;98428.84;;;1.98
22269;BMP280;11303;50.772;19.670;2022-12-07T08:46:18;98431.22;;;2.03
22269;BMP280;11303;50.772;19.670;2022-12-07T08:48:20;98433.16;;;2.06
22269;BMP280;11303;50.772;19.670;2022-12-07T08:50:26;98431.22;;;2.03
22269;BMP280;11303;50.772;19.670;2022-12-07T08:52:27;98420.91;;;2.10
22269;BMP280;11303;50.772;19.670;2022-12-07T08:54:33;98424.28;;;2.11
22269;BMP280;11303;50.772;19.670;2022-12-07T08:56:36;98420.16;;;2.10
22269;BMP280;11303;50.772;19.670;2022-12-07T08:58:38;98413.72;;;2.07
22269;BMP280;11303;50.772;19.670;2022-12-07T09:00:40;98410.03;;;2.08
22269;BMP280;11303;50.772;19.670;2022-12-07T09:02:43;98410.19;;;2.15
22269;BMP280;11303;50.772;19.670;2022-12-07T09:04:45;98408.47;;;2.23
22269;BMP280;11303;50.772;19.670;2022-12-07T09:06:47;98416.88;;;2.32
22269;BMP280;11303;50.772;19.670;2022-12-07T09:08:52;98404.25;;;2.38
22269;BMP280;11303;50.772;19.670;2022-12-07T09:10:56;98411.03;;;2.39
22269;BMP280;11303;50.772;19.670;2022-12-07T09:12:58;98418.69;;;2.47
22269;BMP280;11303;50.772;19.670;2022-12-07T09:15:03;98408.34;;;2.54
22269;BMP280;11303;50.772;19.670;2022-12-07T09:17:07;98409.53;;;2.57
22269;BMP280;11303;50.772;19.670;2022-12-07T09:19:08;98414.59;;;2.69
22269;BMP280;11303;50.772;19.670;2022-12-07T09:21:10;98411.69;;;2.74
22269;BMP280;11303;50.772;19.670;2022-12-07T09:23:11;98409.78;;;2.71
22269;BMP280;11303;50.772;19.670;2022-12-07T09:25:13;98409.22;;;2.62
22269;BMP280;11303;50.772;19.670;2022-12-07T09:27:14;98411.78;;;2.58
22269;BMP280;11303;50.772;19.670;2022-12-07T09:29:18;98413.44;;;2.47
22269;BMP280;11303;50.772;19.670;2022-12-07T09:31:20;98412.19;;;2.41
22269;BMP280;11303;50.772;19.670;2022-12-07T09:33:25;98407.22;;;2.36
22269;BMP280;11303;50.772;19.670;2022-12-07T09:35:27;98410.13;;;2.31
22269;BMP280;11303;50.772;19.670;2022-12-07T09:37:28;98419.81;;;2.30
22269;BMP280;11303;50.772;19.670;2022-12-07T09:39:30;98413.44;;;2.28
22269;BMP280;11303;50.772;19.670;2022-12-07T09:41:32;98413.72;;;2.23
22269;BMP280;11303;50.772;19.670;2022-12-07T09:43:36;98416.25;;;2.19
22269;BMP280;11303;50.772;19.670;2022-12-07T09:45:38;98408.00;;;2.17
22269;BMP280;11303;50.772;19.670;2022-12-07T09:47:46;98398.94;;;2.15
22269;BMP280;11303;50.772;19.670;2022-12-07T09:49:48;98410.63;;;2.17
22269;BMP280;11303;50.772;19.670;2022-12-07T09:52:17;98410.19;;;2.15
22269;BMP280;11303;50.772;19.670;2022-12-07T09:54:19;98407.56;;;2.15
22269;BMP280;11303;50.772;19.670;2022-12-07T09:56:21;98398.69;;;2.20
22269;BMP280;11303;50.772;19.670;2022-12-07T09:58:25;98399.56;;;2.27
22269;BMP280;11303;50.772;19.670;2022-12-07T10:00:29;98398.81;;;2.27
22269;BMP280;11303;50.772;19.670;2022-12-07T10:02:38;98402.34;;;2.34
22269;BMP280;11303;50.772;19.670;2022-12-07T10:04:41;98398.91;;;2.30
22269;BMP280;11303;50.772;19.670;2022-12-07T10:06:45;98391.88;;;2.34
22269;BMP280;11303;50.772;19.670;2022-12-07T10:08:47;98392.38;;;2.40
22269;BMP280;11303;50.772;19.670;2022-12-07T10:10:54;98396.94;;;2.43
22269;BMP280;11303;50.772;19.670;2022-12-07T10:13:02;98393.63;;;2.46
22269;BMP280;11303;50.772;19.670;2022-12-07T10:15:04;98391.75;;;2.47
22269;BMP280;11303;50.772;19.670;2022-12-07T10:17:39;98395.56;;;2.49
22269;BMP280;11303;50.772;19.670;2022-12-07T10:19:42;98403.06;;;2.51
22269;BMP280;11303;50.772;19.670;2022-12-07T10:24:05;98386.38;;;2.59
22269;BMP280;11303;50.772;19.670;2022-12-07T10:26:28;98389.88;;;2.66
22269;BMP280;11303;50.772;19.670;2022-12-07T10:28:34;98388.66;;;2.60
22269;BMP280;11303;50.772;19.670;2022-12-07T10:32:53;98382.81;;;2.48
22269;BMP280;11303;50.772;19.670;2022-12-07T10:35:28;98392.72;;;2.58
22269;BMP280;11303;50.772;19.670;2022-12-07T10:37:39;98383.66;;;2.74
22269;BMP280;11303;50.772;19.670;2022-12-07T10:39:52;98376.09;;;2.92
22269;BMP280;11303;50.772;19.670;2022-12-07T10:43:58;98374.91;;;3.08
22269;BMP280;11303;50.772;19.670;2022-12-07T10:48:32;98366.16;;;3.23
22269;BMP280;11303;50.772;19.670;2022-12-07T10:52:48;98362.22;;;3.59
22269;BMP280;11303;50.772;19.670;2022-12-07T10:57:43;98351.47;;;3.97
22269;BMP280;11303;50.772;19.670;2022-12-07T11:00:17;98358.03;;;4.13
22269;BMP280;11303;50.772;19.670;2022-12-07T11:04:41;98350.94;;;3.84
22269;BMP280;11303;50.772;19.670;2022-12-07T11:09:17;98365.78;;;3.47
22269;BMP280;11303;50.772;19.670;2022-12-07T11:11:46;98367.22;;;3.45
22269;BMP280;11303;50.772;19.670;2022-12-07T11:14:18;98367.50;;;3.36
22269;BMP280;11303;50.772;19.670;2022-12-07T11:21:24;98350.63;;;3.34
22269;BMP280;11303;50.772;19.670;2022-12-07T11:23:57;98355.50;;;3.35
22269;BMP280;11303;50.772;19.670;2022-12-07T11:26:29;98364.09;;;3.36
22269;BMP280;11303;50.772;19.670;2022-12-07T11:28:47;98357.25;;;3.28
22269;BMP280;11303;50.772;19.670;2022-12-07T11:33:33;98351.69;;;3.33
22269;BMP280;11303;50.772;19.670;2022-12-07T11:38:48;98358.97;;;3.17
22269;BMP280;11303;50.772;19.670;2022-12-07T11:40:56;98340.22;;;3.15
22269;BMP280;11303;50.772;19.670;2022-12-07T11:43:25;98334.63;;;3.16
22269;BMP280;11303;50.772;19.670;2022-12-07T11:45:31;98338.44;;;3.22
22269;BMP280;11303;50.772;19.670;2022-12-07T11:47:43;98330.63;;;3.26
22269;BMP280;11303;50.772;19.670;2022-12-07T11:50:22;98329.22;;;3.32
22269;BMP280;11303;50.772;19.670;2022-12-07T11:52:32;98326.50;;;3.25
22269;BMP280;11303;50.772;19.670;2022-12-07T11:54:41;98318.16;;;3.16
22269;BMP280;11303;50.772;19.670;2022-12-07T11:56:50;98322.59;;;3.12
22269;BMP280;11303;50.772;19.670;2022-12-07T11:59:06;98322.16;;;3.10
22269;BMP280;11303;50.772;19.670;2022-12-07T12:03:28;98318.03;;;3.09
22269;BMP280;11303;50.772;19.670;2022-12-07T12:05:33;98314.72;;;3.12
22269;BMP280;11303;50.772;19.670;2022-12-07T12:07:36;98318.16;;;3.16
22269;BMP280;11303;50.772;19.670;2022-12-07T12:10:02;98320.00;;;3.15
22269;BMP280;11303;50.772;19.670;2022-12-07T12:12:17;98325.31;;;3.19
22269;BMP280;11303;50.772;19.670;2022-12-07T12:22:18;98326.63;;;3.32
22269;BMP280;11303;50.772;19.670;2022-12-07T12:24:27;98325.50;;;3.33
22269;BMP280;11303;50.772;19.670;2022-12-07T12:26:32;98332.63;;;3.32
22269;BMP280;11303;50.772;19.670;2022-12-07T12:28:40;98327.03;;;3.34
22269;BMP280;11303;50.772;19.670;2022-12-07T12:33:27;98330.34;;;3.31
22269;BMP280;11303;50.772;19.670;2022-12-07T12:39:36;98308.97;;;3.29
22269;BMP280;11303;50.772;19.670;2022-12-07T12:43:57;98284.06;;;3.42
22269;BMP280;11303;50.772;19.670;2022-12-07T12:48:36;98279.50;;;3.35
22269;BMP280;11303;50.772;19.670;2022-12-07T12:50:38;98274.25;;;3.35
22269;BMP280;11303;50.772;19.670;2022-12-07T12:57:22;98290.97;;;3.27
22269;BMP280;11303;50.772;19.670;2022-12-07T12:59:32;98281.56;;;3.23
22269;BMP280;11303;50.772;19.670;2022-12-07T13:01:42;98285.28;;;3.22
22269;BMP280;11303;50.772;19.670;2022-12-07T13:03:55;98281.50;;;3.19
22269;BMP280;11303;50.772;19.670;2022-12-07T13:08:28;98292.84;;;3.27
22269;BMP280;11303;50.772;19.670;2022-12-07T13:10:40;98292.13;;;3.30
22269;BMP280;11303;50.772;19.670;2022-12-07T13:12:43;98277.59;;;3.32
22269;BMP280;11303;50.772;19.670;2022-12-07T13:14:53;98293.69;;;3.34
22269;BMP280;11303;50.772;19.670;2022-12-07T13:16:55;98290.28;;;3.30